createdAt,value
2018-07-02T00:02:13.769Z,21.10
2018-07-02T00:04:42.255Z,21.10
2018-07-02T00:07:16.483Z,21.10
2018-07-02T00:09:45.257Z,21.10
2018-07-02T00:12:14.668Z,21.00
2018-07-02T00:14:43.147Z,21.00
2018-07-02T00:17:11.892Z,21.00
2018-07-02T00:19:40.435Z,20.90
2018-07-02T00:22:09.000Z,20.90
2018-07-02T00:24:38.153Z,20.90
2018-07-02T00:27:06.798Z,20.90
2018-07-02T00:29:35.225Z,20.90
2018-07-02T00:32:03.674Z,20.90
2018-07-02T00:34:31.936Z,20.90
2018-07-02T00:39:28.254Z,20.80
2018-07-02T00:41:56.573Z,20.80
2018-07-02T00:44:24.811Z,20.80
2018-07-02T00:46:53.134Z,20.70
2018-07-02T00:49:21.496Z,20.70
2018-07-02T00:51:49.856Z,20.70
2018-07-02T00:54:18.440Z,20.60
2018-07-02T00:56:46.732Z,20.60
2018-07-02T00:59:15.050Z,20.60
2018-07-02T01:01:43.418Z,20.60
2018-07-02T01:04:11.987Z,20.60
2018-07-02T01:06:40.358Z,20.60
2018-07-02T01:09:09.503Z,20.60
2018-07-02T01:11:37.811Z,20.50
2018-07-02T01:14:06.544Z,20.50
2018-07-02T01:16:34.927Z,20.50
2018-07-02T01:19:03.245Z,20.40
2018-07-02T01:21:31.506Z,20.40
2018-07-02T01:23:59.810Z,20.40
2018-07-02T01:26:28.153Z,20.30
2018-07-02T01:28:56.484Z,20.30
2018-07-02T01:31:24.764Z,20.20
2018-07-02T01:33:53.039Z,20.20
2018-07-02T01:36:21.336Z,20.10
2018-07-02T01:38:49.583Z,20.10
2018-07-02T01:41:17.927Z,20.00
2018-07-02T01:43:46.192Z,20.00
2018-07-02T01:46:14.430Z,20.00
2018-07-02T01:48:42.660Z,19.90
2018-07-02T01:51:11.103Z,19.90
2018-07-02T01:53:40.724Z,19.90
2018-07-02T01:56:09.665Z,19.90
2018-07-02T01:58:38.038Z,19.90
2018-07-02T02:01:06.403Z,19.90
2018-07-02T02:03:34.691Z,19.90
2018-07-02T02:06:03.048Z,19.90
2018-07-02T02:08:31.376Z,19.90
2018-07-02T02:10:59.603Z,19.90
2018-07-02T02:13:27.877Z,19.90
2018-07-02T02:15:56.204Z,19.80
2018-07-02T02:18:24.485Z,19.80
2018-07-02T02:20:52.789Z,19.80
2018-07-02T02:23:21.068Z,19.80
2018-07-02T02:25:49.395Z,19.70
2018-07-02T02:28:17.662Z,19.70
2018-07-02T02:30:46.030Z,19.70
2018-07-02T02:33:14.345Z,19.60
2018-07-02T02:35:42.564Z,19.60
2018-07-02T02:38:10.844Z,19.60
2018-07-02T02:40:39.178Z,19.60
2018-07-02T02:43:07.616Z,19.60
2018-07-02T02:45:35.904Z,19.50
2018-07-02T02:48:04.201Z,19.50
2018-07-02T02:50:32.604Z,19.50
2018-07-02T02:55:29.044Z,19.50
2018-07-02T02:57:57.300Z,19.50
2018-07-02T03:00:25.586Z,19.50
2018-07-02T03:02:53.812Z,19.50
2018-07-02T03:05:22.116Z,19.50
2018-07-02T03:07:50.463Z,19.40
2018-07-02T03:10:18.957Z,19.40
2018-07-02T03:12:47.317Z,19.50
2018-07-02T03:15:15.697Z,19.40
2018-07-02T03:17:44.192Z,19.40
2018-07-02T03:20:12.903Z,19.40
2018-07-02T03:22:41.323Z,19.30
2018-07-02T03:25:11.033Z,19.30
2018-07-02T03:27:39.414Z,19.30
2018-07-02T03:30:07.871Z,19.20
2018-07-02T03:32:36.989Z,19.20
2018-07-02T03:35:05.338Z,19.20
2018-07-02T03:37:34.418Z,19.20
2018-07-02T03:40:03.003Z,19.20
2018-07-02T03:42:31.412Z,19.10
2018-07-02T03:44:59.856Z,19.10
2018-07-02T03:47:29.163Z,19.10
2018-07-02T03:49:57.573Z,19.10
2018-07-02T03:52:26.043Z,19.10
2018-07-02T03:54:54.421Z,19.10
2018-07-02T03:57:22.824Z,19.10
2018-07-02T03:59:51.236Z,19.10
2018-07-02T04:02:19.614Z,19.00
2018-07-02T04:04:48.121Z,19.00
2018-07-02T04:07:16.564Z,19.00
2018-07-02T04:09:45.166Z,19.10
2018-07-02T04:12:14.045Z,19.10
2018-07-02T04:14:42.376Z,19.10
2018-07-02T04:17:10.851Z,19.10
2018-07-02T04:19:39.275Z,19.10
2018-07-02T04:22:08.116Z,19.10
2018-07-02T04:24:36.536Z,19.10
2018-07-02T04:27:05.375Z,19.10
2018-07-02T04:29:34.781Z,19.10
2018-07-02T04:34:31.489Z,19.10
2018-07-02T04:36:59.848Z,19.10
2018-07-02T04:39:28.230Z,19.10
2018-07-02T04:41:56.677Z,19.10
2018-07-02T04:44:25.087Z,19.20
2018-07-02T04:46:53.868Z,19.20
2018-07-02T04:49:22.979Z,19.20
2018-07-02T04:51:51.428Z,19.20
2018-07-02T04:54:20.040Z,19.20
2018-07-02T04:56:48.449Z,19.20
2018-07-02T04:59:16.890Z,19.20
2018-07-02T05:01:45.406Z,19.20
2018-07-02T05:04:13.813Z,19.30
2018-07-02T05:06:42.280Z,19.20
2018-07-02T05:09:10.599Z,19.30
2018-07-02T05:11:39.134Z,19.30
2018-07-02T05:14:07.470Z,19.30
2018-07-02T05:16:35.951Z,19.30
2018-07-02T05:19:04.338Z,19.30
2018-07-02T05:21:33.006Z,19.40
2018-07-02T05:24:01.659Z,19.30
2018-07-02T05:26:31.030Z,19.40
2018-07-02T05:28:59.395Z,19.40
2018-07-02T05:31:27.922Z,19.50
2018-07-02T05:33:56.891Z,19.50
2018-07-02T05:36:25.748Z,19.50
2018-07-02T05:38:54.996Z,19.60
2018-07-02T05:41:24.758Z,19.60
2018-07-02T05:43:53.127Z,19.60
2018-07-02T05:46:23.549Z,19.60
2018-07-02T05:48:52.159Z,19.60
2018-07-02T05:51:20.609Z,19.60
2018-07-02T05:53:49.154Z,19.70
2018-07-02T05:56:17.558Z,19.70
2018-07-02T05:58:46.032Z,19.70
2018-07-02T06:01:15.379Z,19.80
2018-07-02T06:03:44.064Z,19.80
2018-07-02T06:06:12.745Z,19.80
2018-07-02T06:08:41.293Z,19.90
2018-07-02T06:11:09.902Z,19.90
2018-07-02T06:13:38.462Z,19.90
2018-07-02T06:16:06.911Z,20.00
2018-07-02T06:18:35.598Z,20.00
2018-07-02T06:21:04.361Z,20.10
2018-07-02T06:23:32.785Z,20.10
2018-07-02T06:26:01.371Z,20.20
2018-07-02T06:28:29.795Z,20.30
2018-07-02T06:30:58.524Z,20.30
2018-07-02T06:33:27.358Z,20.40
2018-07-02T06:35:56.624Z,20.40
2018-07-02T06:38:25.502Z,20.50
2018-07-02T06:40:54.160Z,20.60
2018-07-02T06:43:22.837Z,20.60
2018-07-02T06:45:51.455Z,20.60
2018-07-02T06:48:20.224Z,20.60
2018-07-02T06:50:49.109Z,20.70
2018-07-02T06:53:17.788Z,20.80
2018-07-02T06:55:46.818Z,20.90
2018-07-02T06:58:15.540Z,20.90
2018-07-02T07:00:44.503Z,21.00
2018-07-02T07:03:13.459Z,21.00
2018-07-02T07:05:42.184Z,21.10
2018-07-02T07:08:11.034Z,21.20
2018-07-02T07:10:39.835Z,21.20
2018-07-02T07:13:08.436Z,21.30
2018-07-02T07:15:37.368Z,21.30
2018-07-02T07:18:06.394Z,21.40
2018-07-02T07:20:35.170Z,21.50
2018-07-02T07:23:04.107Z,21.60
2018-07-02T07:25:32.972Z,21.70
2018-07-02T07:28:01.681Z,21.80
2018-07-02T07:30:30.180Z,21.90
2018-07-02T07:32:59.157Z,22.00
2018-07-02T07:35:28.666Z,22.00
2018-07-02T07:37:57.178Z,22.10
2018-07-02T07:40:25.766Z,22.10
2018-07-02T07:42:54.328Z,22.30
2018-07-02T07:45:22.914Z,22.30
2018-07-02T07:47:51.338Z,22.40
2018-07-02T07:50:19.937Z,22.50
2018-07-02T07:52:48.398Z,22.60
2018-07-02T07:55:17.003Z,22.60
2018-07-02T07:57:45.492Z,22.70
2018-07-02T08:00:14.013Z,22.70
2018-07-02T08:02:42.746Z,22.90
2018-07-02T08:05:11.294Z,22.90
2018-07-02T08:07:39.851Z,23.00
2018-07-02T08:10:08.440Z,23.00
2018-07-02T08:12:37.009Z,23.10
2018-07-02T08:15:05.516Z,23.10
2018-07-02T08:17:34.037Z,23.20
2018-07-02T08:20:02.712Z,23.20
2018-07-02T08:22:31.867Z,23.30
2018-07-02T08:25:00.347Z,23.30
2018-07-02T08:27:28.895Z,23.40
2018-07-02T08:29:57.381Z,23.50
2018-07-02T08:32:25.950Z,23.60
2018-07-02T08:34:54.840Z,23.70
2018-07-02T08:37:24.945Z,23.70
2018-07-02T08:39:53.487Z,23.80
2018-07-02T08:42:22.798Z,23.80
2018-07-02T08:44:51.420Z,23.90
2018-07-02T08:47:19.890Z,24.00
2018-07-02T08:49:48.656Z,24.10
2018-07-02T08:52:17.504Z,24.20
2018-07-02T08:54:46.000Z,24.30
2018-07-02T08:57:14.530Z,24.40
2018-07-02T09:02:11.267Z,24.50
2018-07-02T09:04:39.907Z,24.60
2018-07-02T09:07:08.588Z,24.70
2018-07-02T09:09:37.113Z,24.80
2018-07-02T09:12:05.698Z,25.00
2018-07-02T09:14:35.404Z,25.10
2018-07-02T09:17:03.930Z,25.20
2018-07-02T09:19:33.466Z,25.30
2018-07-02T09:22:01.947Z,25.50
2018-07-02T09:24:30.724Z,25.70
2018-07-02T09:26:59.603Z,25.80
2018-07-02T09:29:28.110Z,26.00
2018-07-02T09:31:56.859Z,26.20
2018-07-02T09:34:25.240Z,26.40
2018-07-02T09:36:54.336Z,26.70
2018-07-02T09:39:23.049Z,27.10
2018-07-02T09:41:51.550Z,27.60
2018-07-02T09:44:20.129Z,28.10
2018-07-02T09:46:48.571Z,28.40
2018-07-02T09:49:17.684Z,29.00
2018-07-02T09:51:46.263Z,29.50
2018-07-02T09:54:14.847Z,29.80
2018-07-02T09:56:43.370Z,30.20
2018-07-02T09:59:11.811Z,30.70
2018-07-02T10:01:40.665Z,31.10
2018-07-02T10:04:09.276Z,31.60
2018-07-02T10:06:37.967Z,31.80
2018-07-02T10:09:09.753Z,31.90
2018-07-02T10:11:38.324Z,31.70
2018-07-02T10:14:06.884Z,31.30
2018-07-02T10:16:35.576Z,30.90
2018-07-02T10:19:04.550Z,30.40
2018-07-02T10:21:33.014Z,30.00
2018-07-02T10:24:01.555Z,29.60
2018-07-02T10:26:30.070Z,29.10
2018-07-02T10:28:58.534Z,28.70
2018-07-02T10:31:27.910Z,28.40
2018-07-02T10:33:56.240Z,28.00
2018-07-02T10:36:24.813Z,27.80
2018-07-02T10:41:21.889Z,27.30
2018-07-02T10:43:50.486Z,27.10
2018-07-02T10:46:18.905Z,27.00
2018-07-02T10:48:47.398Z,26.90
2018-07-02T10:51:15.933Z,26.80
2018-07-02T10:53:44.428Z,26.70
2018-07-02T10:56:12.825Z,26.60
2018-07-02T10:58:41.838Z,26.50
2018-07-02T11:01:10.895Z,26.40
2018-07-02T11:03:39.929Z,26.30
2018-07-02T11:06:08.617Z,26.20
2018-07-02T11:08:37.103Z,26.20
2018-07-02T11:11:05.781Z,26.30
2018-07-02T11:13:34.258Z,26.30
2018-07-02T11:16:02.791Z,26.30
2018-07-02T11:18:31.369Z,26.20
2018-07-02T11:20:59.993Z,26.20
2018-07-02T11:23:29.336Z,26.10
2018-07-02T11:25:57.831Z,26.10
2018-07-02T11:28:26.250Z,26.20
2018-07-02T11:30:55.255Z,26.30
2018-07-02T11:33:23.797Z,26.30
2018-07-02T11:35:52.645Z,26.30
2018-07-02T11:40:49.772Z,26.40
2018-07-02T11:43:18.296Z,26.50
2018-07-02T11:45:46.811Z,26.50
2018-07-02T11:50:44.067Z,26.40
2018-07-02T11:53:12.512Z,26.30
2018-07-02T11:55:41.445Z,26.30
2018-07-02T11:58:09.896Z,26.30
2018-07-02T12:00:39.081Z,26.50
2018-07-02T12:03:07.894Z,26.50
2018-07-02T12:05:36.248Z,26.60
2018-07-02T12:08:04.696Z,26.60
2018-07-02T12:10:33.613Z,26.60
2018-07-02T12:13:02.104Z,26.60
2018-07-02T12:15:30.541Z,26.60
2018-07-02T12:17:59.466Z,26.60
2018-07-02T12:22:56.024Z,26.70
2018-07-02T12:25:25.047Z,26.70
2018-07-02T12:27:54.405Z,26.70
2018-07-02T12:30:23.461Z,26.80
2018-07-02T12:32:51.930Z,26.90
2018-07-02T12:35:20.894Z,26.90
2018-07-02T12:40:18.677Z,27.00
2018-07-02T12:42:47.072Z,27.00
2018-07-02T12:45:15.447Z,27.10
2018-07-02T12:47:43.779Z,27.20
2018-07-02T12:50:12.803Z,27.20
2018-07-02T12:52:41.315Z,27.20
2018-07-02T12:55:09.751Z,27.20
2018-07-02T12:57:38.240Z,27.20
2018-07-02T13:00:06.625Z,27.20
2018-07-02T13:02:35.015Z,27.30
2018-07-02T13:05:03.487Z,27.30
2018-07-02T13:07:31.930Z,27.40
2018-07-02T13:10:00.459Z,27.40
2018-07-02T13:12:28.824Z,27.40
2018-07-02T13:14:57.965Z,27.40
2018-07-02T13:17:26.440Z,27.40
2018-07-02T13:19:54.925Z,27.40
2018-07-02T13:22:23.240Z,27.40
2018-07-02T13:24:51.906Z,27.40
2018-07-02T13:27:20.295Z,27.40
2018-07-02T13:29:48.799Z,27.40
2018-07-02T13:32:17.457Z,27.40
2018-07-02T13:34:45.799Z,27.40
2018-07-02T13:37:14.220Z,27.40
2018-07-02T13:39:42.688Z,27.40
2018-07-02T13:42:11.049Z,27.40
2018-07-02T13:44:39.435Z,27.40
2018-07-02T13:47:07.800Z,27.50
2018-07-02T13:49:36.353Z,27.50
2018-07-02T13:52:04.822Z,27.50
2018-07-02T13:54:33.215Z,27.50
2018-07-02T13:57:01.548Z,27.50
2018-07-02T13:59:30.076Z,27.50
2018-07-02T14:01:58.960Z,27.50
2018-07-02T14:04:27.373Z,27.60
2018-07-02T14:06:55.940Z,27.70
2018-07-02T14:09:24.390Z,27.70
2018-07-02T14:11:53.209Z,27.70
2018-07-02T14:14:21.552Z,27.60
2018-07-02T14:16:50.245Z,27.50
2018-07-02T14:19:18.686Z,27.60
2018-07-02T14:21:47.118Z,27.50
2018-07-02T14:24:15.424Z,27.50
2018-07-02T14:26:43.755Z,27.50
2018-07-02T14:29:12.195Z,27.60
2018-07-02T14:31:40.495Z,27.70
2018-07-02T14:34:08.918Z,27.80
2018-07-02T14:36:37.286Z,27.80
2018-07-02T14:39:09.198Z,27.90
2018-07-02T14:41:37.701Z,27.90
2018-07-02T14:44:06.328Z,27.90
2018-07-02T14:46:34.924Z,28.00
2018-07-02T14:49:03.339Z,28.10
2018-07-02T14:51:31.982Z,28.10
2018-07-02T14:54:01.548Z,28.10
2018-07-02T14:56:30.402Z,28.10
2018-07-02T14:58:58.755Z,28.10
2018-07-02T15:01:27.118Z,28.00
2018-07-02T15:03:55.476Z,28.00
2018-07-02T15:06:23.954Z,28.10
2018-07-02T15:08:52.993Z,28.10
2018-07-02T15:11:21.401Z,28.10
2018-07-02T15:13:50.784Z,28.10
2018-07-02T15:16:19.178Z,28.10
2018-07-02T15:18:47.651Z,28.10
2018-07-02T15:21:16.098Z,28.00
2018-07-02T15:23:44.536Z,28.10
2018-07-02T15:26:13.054Z,28.20
2018-07-02T15:28:41.436Z,28.20
2018-07-02T15:31:10.726Z,28.30
2018-07-02T15:33:39.058Z,28.30
2018-07-02T15:36:07.477Z,28.20
2018-07-02T15:38:35.892Z,28.20
2018-07-02T15:41:04.988Z,28.30
2018-07-02T15:43:33.542Z,28.20
2018-07-02T15:46:02.230Z,28.10
2018-07-02T15:48:30.804Z,28.10
2018-07-02T15:50:59.180Z,28.20
2018-07-02T15:53:27.439Z,28.20
2018-07-02T15:55:56.219Z,28.20
2018-07-02T15:58:24.556Z,28.20
2018-07-02T16:00:52.910Z,28.20
2018-07-02T16:03:21.766Z,28.30
2018-07-02T16:05:50.179Z,28.30
2018-07-02T16:08:18.781Z,28.30
2018-07-02T16:10:47.076Z,28.30
2018-07-02T16:13:15.435Z,28.40
2018-07-02T16:15:43.780Z,28.40
2018-07-02T16:18:12.233Z,28.40
2018-07-02T16:20:40.675Z,28.40
2018-07-02T16:23:09.016Z,28.40
2018-07-02T16:25:37.461Z,28.30
2018-07-02T16:28:06.726Z,28.30
2018-07-02T16:30:35.718Z,28.30
2018-07-02T16:33:04.304Z,28.30
2018-07-02T16:35:32.999Z,28.30
2018-07-02T16:38:01.368Z,28.30
2018-07-02T16:40:30.139Z,28.40
2018-07-02T16:45:26.954Z,28.40
2018-07-02T16:47:55.338Z,28.50
2018-07-02T16:50:24.164Z,28.40
2018-07-02T16:52:52.753Z,28.40
2018-07-02T16:55:21.180Z,28.40
2018-07-02T16:57:49.793Z,28.40
2018-07-02T17:00:18.222Z,28.40
2018-07-02T17:02:46.591Z,28.40
2018-07-02T17:05:14.910Z,28.40
2018-07-02T17:07:43.331Z,28.50
2018-07-02T17:10:12.551Z,28.50
2018-07-02T17:12:40.968Z,28.50
2018-07-02T17:15:09.275Z,28.50
2018-07-02T17:17:37.693Z,28.50
2018-07-02T17:20:06.775Z,28.50
2018-07-02T17:25:03.651Z,28.50
2018-07-02T17:27:34.005Z,28.60
2018-07-02T17:30:02.436Z,28.50
2018-07-02T17:32:30.949Z,28.50
2018-07-02T17:34:59.344Z,28.40
2018-07-02T17:37:27.767Z,28.40
2018-07-02T17:39:56.154Z,28.40
2018-07-02T17:42:24.443Z,28.40
2018-07-02T17:44:52.823Z,28.40
2018-07-02T17:47:23.388Z,28.40
2018-07-02T17:49:51.839Z,28.40
2018-07-02T17:52:21.204Z,28.40
2018-07-02T17:54:49.762Z,28.30
2018-07-02T17:57:18.073Z,28.30
2018-07-02T17:59:46.461Z,28.30
2018-07-02T18:02:14.913Z,28.30
2018-07-02T18:04:43.260Z,28.20
2018-07-02T18:07:11.631Z,28.20
2018-07-02T18:09:39.992Z,28.20
2018-07-02T18:12:08.780Z,28.10
2018-07-02T18:14:37.151Z,28.10
2018-07-02T18:17:05.803Z,28.10
2018-07-02T18:19:34.777Z,28.00
2018-07-02T18:22:03.143Z,28.00
2018-07-02T18:24:31.491Z,27.90
2018-07-02T18:26:59.858Z,27.90
2018-07-02T18:29:28.230Z,27.80
2018-07-02T18:31:57.000Z,27.70
2018-07-02T18:34:25.382Z,27.60
2018-07-02T18:36:54.428Z,27.60
2018-07-02T18:39:22.812Z,27.60
2018-07-02T18:41:51.201Z,27.60
2018-07-02T18:44:19.503Z,27.60
2018-07-02T18:46:47.951Z,27.60
2018-07-02T18:49:16.295Z,27.50
2018-07-02T18:51:44.651Z,27.50
2018-07-02T18:54:13.211Z,27.40
2018-07-02T18:56:41.600Z,27.40
2018-07-02T18:59:09.991Z,27.40
2018-07-02T19:01:38.437Z,27.30
2018-07-02T19:04:06.959Z,27.30
2018-07-02T19:06:35.363Z,27.20
2018-07-02T19:09:06.185Z,27.20
2018-07-02T19:11:34.970Z,27.10
2018-07-02T19:14:03.645Z,27.10
2018-07-02T19:16:32.160Z,27.00
2018-07-02T19:19:00.696Z,27.00
2018-07-02T19:21:30.033Z,26.90
2018-07-02T19:23:58.412Z,26.80
2018-07-02T19:26:26.823Z,26.80
2018-07-02T19:28:55.556Z,26.70
2018-07-02T19:31:23.911Z,26.70
2018-07-02T19:33:52.181Z,26.60
2018-07-02T19:36:20.477Z,26.50
2018-07-02T19:38:48.946Z,26.50
2018-07-02T19:41:17.369Z,26.40
2018-07-02T19:43:45.800Z,26.40
2018-07-02T19:46:14.148Z,26.30
2018-07-02T19:48:43.575Z,26.20
2018-07-02T19:51:12.018Z,26.20
2018-07-02T19:53:41.140Z,26.20
2018-07-02T19:58:37.932Z,26.10
2018-07-02T20:01:06.640Z,26.00
2018-07-02T20:03:35.081Z,25.90
2018-07-02T20:06:03.727Z,25.90
2018-07-02T20:08:32.274Z,25.80
2018-07-02T20:11:00.638Z,25.80
2018-07-02T20:13:29.063Z,25.70
2018-07-02T20:15:57.471Z,25.60
2018-07-02T20:18:25.921Z,25.60
2018-07-02T20:20:54.265Z,25.50
2018-07-02T20:23:22.726Z,25.50
2018-07-02T20:25:51.200Z,25.40
2018-07-02T20:28:19.803Z,25.30
2018-07-02T20:30:48.236Z,25.30
2018-07-02T20:33:16.634Z,25.20
2018-07-02T20:35:45.017Z,25.20
2018-07-02T20:38:13.447Z,25.20
2018-07-02T20:40:41.870Z,25.10
2018-07-02T20:43:10.246Z,25.10
2018-07-02T20:45:39.443Z,25.00
2018-07-02T20:48:07.863Z,25.00
2018-07-02T20:50:36.672Z,24.90
2018-07-02T20:53:05.289Z,24.80
2018-07-02T20:55:33.717Z,24.80
2018-07-02T21:00:30.959Z,24.70
2018-07-02T21:03:00.511Z,24.70
2018-07-02T21:05:30.125Z,24.70
2018-07-02T21:07:58.728Z,24.60
2018-07-02T21:10:27.450Z,24.60
2018-07-02T21:12:55.833Z,24.60
2018-07-02T21:15:24.345Z,24.50
2018-07-02T21:17:53.756Z,24.50
2018-07-02T21:20:22.203Z,24.40
2018-07-02T21:22:50.606Z,24.30
2018-07-02T21:25:18.965Z,24.30
2018-07-02T21:27:47.648Z,24.30
2018-07-02T21:30:16.245Z,24.30
2018-07-02T21:32:44.685Z,24.20
2018-07-02T21:35:13.168Z,24.20
2018-07-02T21:40:09.711Z,24.10
2018-07-02T21:42:38.215Z,24.10
2018-07-02T21:45:06.669Z,24.00
2018-07-02T21:47:34.992Z,24.00
2018-07-02T21:50:03.355Z,24.00
2018-07-02T21:55:00.618Z,23.90
2018-07-02T21:57:28.944Z,23.90
2018-07-02T21:59:57.246Z,23.90
2018-07-02T22:02:25.604Z,23.90
2018-07-02T22:04:54.271Z,23.80
2018-07-02T22:07:22.675Z,23.80
2018-07-02T22:09:50.945Z,23.80
2018-07-02T22:12:19.333Z,23.80
2018-07-02T22:14:47.661Z,23.80
2018-07-02T22:17:16.011Z,23.70
2018-07-02T22:19:44.391Z,23.70
2018-07-02T22:22:12.698Z,23.60
2018-07-02T22:24:41.036Z,23.60
2018-07-02T22:27:09.423Z,23.50
2018-07-02T22:29:37.734Z,23.50
2018-07-02T22:32:06.308Z,23.50
2018-07-02T22:34:34.715Z,23.50
2018-07-02T22:37:03.164Z,23.50
2018-07-02T22:39:31.445Z,23.50
2018-07-02T22:41:59.707Z,23.50
2018-07-02T22:44:28.079Z,23.40
2018-07-02T22:46:56.389Z,23.40
2018-07-02T22:54:22.085Z,23.30
2018-07-02T22:56:50.758Z,23.30
2018-07-02T22:59:19.076Z,23.30
2018-07-02T23:01:47.384Z,23.30
2018-07-02T23:04:15.753Z,23.20
2018-07-02T23:06:44.136Z,23.20
2018-07-02T23:09:13.340Z,23.10
2018-07-02T23:11:41.744Z,23.10
2018-07-02T23:14:10.211Z,23.10
2018-07-02T23:16:38.664Z,23.10
2018-07-02T23:19:07.175Z,23.10
2018-07-02T23:21:35.631Z,23.10
2018-07-02T23:24:04.082Z,23.00
2018-07-02T23:26:33.248Z,23.00
2018-07-02T23:29:02.443Z,23.00
2018-07-02T23:31:30.833Z,23.00
2018-07-02T23:33:59.242Z,23.00
2018-07-02T23:36:27.653Z,23.00
2018-07-02T23:38:56.126Z,23.00
2018-07-02T23:41:24.539Z,22.90
2018-07-02T23:43:56.076Z,22.90
2018-07-02T23:46:24.531Z,22.80
2018-07-02T23:48:52.927Z,22.80
2018-07-02T23:51:21.328Z,22.70
2018-07-02T23:53:49.721Z,22.70
2018-07-02T23:56:18.068Z,22.60
2018-07-02T23:58:46.504Z,22.60
